Aeroporto :
LOGIN :

Iscrizione | Disclaimer

   EN    FR    IT 

 










Sommario :    VFR   VFR Marginale   IFR   IFR Intensivo   IFR Molto Intensivo
Visibilità : 
Base nubi : 
>= 8 km
>= 3000ft
5 / 8 km
1000 / 3000 ft
1500m / 5 km
500 / 1000 ft
800 / 1500m
200 / 500 ft
< 800m
< 200 ft
Simboli :   Temporali  Nebbia  Neve Forte  Precipitazioni Forti  Vento > 20 kt
SIGMETs :   Varie  Temporali  Ghiacco  Turbolenza  Onda orograficha  Ceneri Vulcaniche






- Altitudine del aeroporto : 266 ft
- Codice IATA : NCL


EGNT - Newcastle

ULTIMO METAR :
  • 261450Z VRB03KT 9999 OVC030 07/02 Q1020

METARs OBSOLETI :
  • 261420Z AUTO VRB01KT 9999 OVC022/// 07/03 Q1020
  • 261350Z AUTO VRB01KT 9999 OVC025/// 07/02 Q1020
  • 261320Z AUTO 30002KT 9999 OVC027/// 08/02 Q1020
  • 261250Z AUTO 32003KT 9999 OVC031/// 08/02 Q1020
  • 261220Z AUTO 32006KT 9999 OVC030/// 08/03 Q1020

TAF TAF EGNT
Valido dal 26 a 12 ore il 27 a 12 ore UTC


261101Z 2612/2712 27005KT 9999 SCT030
PROB30
TEMPO 2621/2624 6000
TEMPO 2700/2710 6000
PROB30
TEMPO 2700/2703 3000 BR
PROB30 2703/2708 0300 FG FZFG VV///
ATIS : +44 191 214 3400



MetMap, La meteo Aeronautica in un colpo d'occhio ! - Copyright ORBIFLY Dicembre 2007 - Disclaimer

ORBIFLY MET'MAP TEAM :

Programmazione e sviluppo : Alexandra Zaïnal
Concezione : Baudouin d'Aumeries
Aiuto per la programmazione : Marc-Olivier Méhu
Supporto tecnico e logistico : Manuel Goepfert
Aiuto per la traduzione : Arnaldo La Scala

Contatto : metmap@orbifly.com




FONTI E CREDITI :

   NOAA